Wetterdaten: Woche 08.10.18 - 14.10.18 (KW41)
Datum Zeit Temperatur Luftfeuchte Luftdruck Niederschlag Windrichtung Sonnenschein Solar Wind
08.10.2018 00:00 11,7 C 91 % 1015,9 hPa 0,0 l/m O 0,00 h 0 W/m 2,4 km/h (1 Bft)
08.10.2018 01:00 11,3 C 92 % 1015,9 hPa 0,0 l/m N 0,00 h 0 W/m 1,1 km/h (0 Bft)
08.10.2018 02:00 10,9 C 93 % 1015,9 hPa 0,0 l/m O 0,00 h 0 W/m 2,9 km/h (1 Bft)
08.10.2018 03:00 10,5 C 93 % 1015,8 hPa 0,0 l/m O 0,00 h 0 W/m 0,8 km/h (0 Bft)
08.10.2018 04:00 10,2 C 94 % 1015,9 hPa 0,0 l/m O-NO 0,00 h 0 W/m 4,7 km/h (1 Bft)
08.10.2018 05:00 10,3 C 96 % 1015,8 hPa 0,0 l/m O-NO 0,00 h 0 W/m 6,6 km/h (2 Bft)
08.10.2018 06:00 10,8 C 97 % 1016,0 hPa 0,0 l/m NO 0,00 h 0 W/m 6,3 km/h (2 Bft)
08.10.2018 07:00 10,9 C 98 % 1016,4 hPa 0,0 l/m NO 0,00 h 8 W/m 3,6 km/h (1 Bft)
08.10.2018 08:00 11,1 C 98 % 1017,1 hPa 0,0 l/m NO 0,00 h 38 W/m 5,7 km/h (1 Bft)
08.10.2018 09:00 11,4 C 98 % 1017,6 hPa 0,0 l/m NO 0,00 h 86 W/m 5,9 km/h (2 Bft)
08.10.2018 10:00 12,2 C 97 % 1017,9 hPa 0,0 l/m NO 0,00 h 149 W/m 9,5 km/h (2 Bft)
08.10.2018 11:00 13,6 C 93 % 1018,0 hPa 0,0 l/m NO 0,25 h 284 W/m 11,3 km/h (2 Bft)
08.10.2018 12:00 15,5 C 86 % 1018,2 hPa 0,0 l/m NO 0,83 h 536 W/m 11,8 km/h (2 Bft)
08.10.2018 13:00 17,3 C 80 % 1017,5 hPa 0,0 l/m NO 1,00 h 601 W/m 13,3 km/h (3 Bft)
08.10.2018 14:00 18,1 C 76 % 1017,3 hPa 0,0 l/m O-NO 0,75 h 482 W/m 15,4 km/h (3 Bft)
08.10.2018 15:00 17,8 C 78 % 1017,1 hPa 0,0 l/m NO 0,67 h 389 W/m 15,6 km/h (3 Bft)
08.10.2018 16:00 17,0 C 80 % 1017,2 hPa 0,0 l/m NO 0,83 h 318 W/m 15,3 km/h (3 Bft)
08.10.2018 17:00 15,8 C 84 % 1017,4 hPa 0,0 l/m N-NO 0,75 h 134 W/m 13,8 km/h (3 Bft)
08.10.2018 18:00 14,8 C 88 % 1017,7 hPa 0,0 l/m NO 0,25 h 25 W/m 9,7 km/h (2 Bft)
08.10.2018 19:00 13,9 C 91 % 1018,3 hPa 0,0 l/m NO 0,00 h 0 W/m 6,2 km/h (2 Bft)
08.10.2018 20:00 13,6 C 92 % 1018,5 hPa 0,0 l/m NO 0,00 h 0 W/m 8,9 km/h (2 Bft)
08.10.2018 21:00 13,4 C 92 % 1019,0 hPa 0,0 l/m N-NO 0,00 h 0 W/m 10,3 km/h (2 Bft)
08.10.2018 22:00 13,2 C 93 % 1019,5 hPa 0,0 l/m N-NO 0,00 h 0 W/m 2,0 km/h (1 Bft)
08.10.2018 23:00 13,1 C 93 % 1019,5 hPa 0,0 l/m N 0,00 h 0 W/m 0,0 km/h (0 Bft)
09.10.2018 00:00 13,0 C 93 % 1019,5 hPa 0,0 l/m N 0,00 h 0 W/m 0,4 km/h (0 Bft)
09.10.2018 01:00 12,9 C 94 % 1019,3 hPa 0,0 l/m N 0,00 h 0 W/m 0,0 km/h (0 Bft)
09.10.2018 02:00 12,9 C 94 % 1019,1 hPa 0,0 l/m N 0,00 h 0 W/m 0,0 km/h (0 Bft)
09.10.2018 03:00 12,9 C 94 % 1019,1 hPa 0,0 l/m N 0,00 h 0 W/m 0,0 km/h (0 Bft)
09.10.2018 04:00 12,9 C 94 % 1018,9 hPa 0,0 l/m N 0,00 h 0 W/m 0,0 km/h (0 Bft)
09.10.2018 05:00 12,9 C 95 % 1018,8 hPa 0,0 l/m N 0,00 h 0 W/m 0,1 km/h (0 Bft)
09.10.2018 06:00 12,9 C 95 % 1019,0 hPa 0,0 l/m N 0,00 h 0 W/m 0,0 km/h (0 Bft)
09.10.2018 07:00 12,9 C 95 % 1019,0 hPa 0,0 l/m N 0,00 h 11 W/m 0,0 km/h (0 Bft)
09.10.2018 08:00 13,0 C 96 % 1019,1 hPa 0,0 l/m N 0,00 h 48 W/m 0,3 km/h (0 Bft)
09.10.2018 09:00 13,8 C 95 % 1019,6 hPa 0,0 l/m N 0,00 h 108 W/m 0,0 km/h (0 Bft)
09.10.2018 10:00 15,1 C 90 % 1019,6 hPa 0,0 l/m N-NO 0,67 h 285 W/m 0,8 km/h (0 Bft)
09.10.2018 11:00 16,6 C 81 % 1019,4 hPa 0,0 l/m N-NO 0,92 h 369 W/m 1,6 km/h (1 Bft)
09.10.2018 12:00 17,0 C 77 % 1019,5 hPa 0,0 l/m NO 0,00 h 243 W/m 7,8 km/h (2 Bft)
09.10.2018 13:00 16,7 C 78 % 1019,5 hPa 0,0 l/m O-NO 0,67 h 342 W/m 11,1 km/h (2 Bft)
09.10.2018 14:00 16,9 C 78 % 1019,0 hPa 0,0 l/m O 0,50 h 298 W/m 11,0 km/h (2 Bft)
09.10.2018 15:00 16,7 C 80 % 1018,8 hPa 0,0 l/m O 0,00 h 216 W/m 11,2 km/h (2 Bft)
09.10.2018 16:00 16,8 C 80 % 1018,4 hPa 0,0 l/m NO 0,67 h 234 W/m 10,2 km/h (2 Bft)
09.10.2018 17:00 16,5 C 82 % 1018,4 hPa 0,0 l/m NO 0,17 h 87 W/m 9,5 km/h (2 Bft)
09.10.2018 18:00 15,5 C 85 % 1018,5 hPa 0,0 l/m O-NO 0,00 h 20 W/m 7,6 km/h (2 Bft)
09.10.2018 19:00 13,8 C 89 % 1018,7 hPa 0,0 l/m N 0,00 h 0 W/m 0,5 km/h (0 Bft)
09.10.2018 20:00 12,1 C 94 % 1018,9 hPa 0,0 l/m N 0,00 h 0 W/m 0,3 km/h (0 Bft)
09.10.2018 21:00 12,0 C 96 % 1019,1 hPa 0,0 l/m N 0,00 h 0 W/m 0,0 km/h (0 Bft)
09.10.2018 22:00 12,5 C 96 % 1019,1 hPa 0,0 l/m N 0,00 h 0 W/m 1,1 km/h (0 Bft)
09.10.2018 23:00 12,4 C 96 % 1019,1 hPa 0,0 l/m N 0,00 h 0 W/m 0,5 km/h (0 Bft)
10.10.2018 00:00 12,8 C 97 % 1019,0 hPa 0,0 l/m O 0,00 h 0 W/m 8,0 km/h (2 Bft)
10.10.2018 01:00 12,8 C 96 % 1018,8 hPa 0,0 l/m O 0,00 h 0 W/m 6,7 km/h (2 Bft)
10.10.2018 02:00 12,7 C 95 % 1018,3 hPa 0,0 l/m O 0,00 h 0 W/m 5,3 km/h (1 Bft)
10.10.2018 03:00 12,5 C 95 % 1017,7 hPa 0,0 l/m O 0,00 h 0 W/m 3,5 km/h (1 Bft)
10.10.2018 04:00 12,3 C 96 % 1017,4 hPa 0,0 l/m O 0,00 h 0 W/m 4,9 km/h (1 Bft)
10.10.2018 05:00 12,2 C 97 % 1016,9 hPa 0,0 l/m O 0,00 h 0 W/m 5,3 km/h (1 Bft)
10.10.2018 06:00 12,0 C 97 % 1016,7 hPa 0,0 l/m O 0,00 h 0 W/m 8,3 km/h (2 Bft)
10.10.2018 07:00 11,8 C 98 % 1016,4 hPa 0,0 l/m O 0,00 h 6 W/m 4,9 km/h (1 Bft)
10.10.2018 08:00 11,8 C 98 % 1016,8 hPa 0,0 l/m O 0,00 h 23 W/m 7,2 km/h (2 Bft)
10.10.2018 09:00 11,8 C 98 % 1016,9 hPa 0,0 l/m O 0,00 h 60 W/m 9,9 km/h (2 Bft)
10.10.2018 10:00 12,1 C 99 % 1016,9 hPa 0,0 l/m O 0,00 h 109 W/m 7,6 km/h (2 Bft)
10.10.2018 11:00 12,7 C 98 % 1016,7 hPa 0,0 l/m O 0,00 h 142 W/m 10,9 km/h (2 Bft)
10.10.2018 12:00 13,5 C 96 % 1016,3 hPa 0,0 l/m O 0,00 h 219 W/m 10,2 km/h (2 Bft)
10.10.2018 13:00 14,5 C 92 % 1015,5 hPa 0,0 l/m O-NO 0,50 h 350 W/m 11,3 km/h (2 Bft)
10.10.2018 14:00 16,5 C 85 % 1014,7 hPa 0,0 l/m O-NO 0,92 h 503 W/m 12,0 km/h (2 Bft)
10.10.2018 15:00 17,8 C 81 % 1013,9 hPa 0,0 l/m NO 1,00 h 440 W/m 9,7 km/h (2 Bft)
10.10.2018 16:00 18,3 C 80 % 1013,4 hPa 0,0 l/m NO 1,00 h 305 W/m 9,3 km/h (2 Bft)
10.10.2018 17:00 17,2 C 83 % 1013,1 hPa 0,0 l/m NO 0,83 h 127 W/m 10,2 km/h (2 Bft)
10.10.2018 18:00 15,7 C 87 % 1013,1 hPa 0,0 l/m NO 0,08 h 18 W/m 6,7 km/h (2 Bft)
10.10.2018 19:00 14,3 C 90 % 1013,2 hPa 0,0 l/m NO 0,00 h 0 W/m 1,7 km/h (1 Bft)
10.10.2018 20:00 13,1 C 91 % 1013,2 hPa 0,0 l/m N 0,00 h 0 W/m 0,9 km/h (0 Bft)
10.10.2018 21:00 12,1 C 92 % 1013,2 hPa 0,0 l/m N 0,00 h 0 W/m 0,0 km/h (0 Bft)
10.10.2018 22:00 11,5 C 93 % 1013,0 hPa 0,0 l/m N 0,00 h 0 W/m 0,0 km/h (0 Bft)
10.10.2018 23:00 11,0 C 94 % 1012,7 hPa 0,0 l/m NO 0,00 h 0 W/m 1,2 km/h (1 Bft)
11.10.2018 00:00 10,4 C 95 % 1012,4 hPa 0,0 l/m N 0,00 h 0 W/m 0,0 km/h (0 Bft)
11.10.2018 01:00 9,7 C 95 % 1012,3 hPa 0,0 l/m N 0,00 h 0 W/m 0,0 km/h (0 Bft)
11.10.2018 02:00 9,0 C 95 % 1012,2 hPa 0,0 l/m N 0,00 h 0 W/m 0,0 km/h (0 Bft)
11.10.2018 03:00 8,2 C 96 % 1012,1 hPa 0,2 l/m N 0,00 h 0 W/m 0,4 km/h (0 Bft)
11.10.2018 04:00 7,8 C 96 % 1011,8 hPa 0,0 l/m N 0,00 h 0 W/m 0,0 km/h (0 Bft)
11.10.2018 05:00 7,3 C 96 % 1011,8 hPa 0,0 l/m NO 0,00 h 0 W/m 2,7 km/h (1 Bft)
11.10.2018 06:00 6,8 C 96 % 1012,0 hPa 0,0 l/m NO 0,00 h 0 W/m 1,9 km/h (1 Bft)
11.10.2018 07:00 6,4 C 97 % 1012,2 hPa 0,0 l/m NO 0,08 h 10 W/m 1,1 km/h (0 Bft)
11.10.2018 08:00 6,3 C 97 % 1012,8 hPa 0,0 l/m NO 0,58 h 83 W/m 2,4 km/h (1 Bft)
11.10.2018 09:00 7,9 C 98 % 1013,3 hPa 0,0 l/m NO 1,00 h 246 W/m 5,0 km/h (1 Bft)
11.10.2018 10:00 10,1 C 98 % 1013,7 hPa 0,0 l/m NO 1,00 h 389 W/m 4,0 km/h (1 Bft)
11.10.2018 11:00 12,9 C 93 % 1014,0 hPa 0,0 l/m NO 0,92 h 460 W/m 7,2 km/h (2 Bft)
11.10.2018 12:00 16,6 C 82 % 1013,9 hPa 0,0 l/m NO 1,00 h 563 W/m 5,1 km/h (1 Bft)
11.10.2018 13:00 19,3 C 74 % 1013,6 hPa 0,0 l/m NO 0,67 h 401 W/m 3,5 km/h (1 Bft)
11.10.2018 14:00 20,6 C 63 % 1013,4 hPa 0,0 l/m NO 0,58 h 383 W/m 3,1 km/h (1 Bft)
11.10.2018 15:00 20,4 C 61 % 1013,3 hPa 0,0 l/m N 0,00 h 196 W/m 0,4 km/h (0 Bft)
11.10.2018 16:00 20,1 C 66 % 1013,4 hPa 0,0 l/m NO 0,00 h 139 W/m 0,9 km/h (0 Bft)
11.10.2018 17:00 18,9 C 76 % 1013,5 hPa 0,0 l/m N 0,00 h 42 W/m 0,0 km/h (0 Bft)
11.10.2018 18:00 16,5 C 87 % 1013,7 hPa 0,0 l/m N 0,08 h 11 W/m 0,0 km/h (0 Bft)
11.10.2018 19:00 15,6 C 89 % 1014,2 hPa 0,0 l/m N 0,00 h 0 W/m 0,0 km/h (0 Bft)
11.10.2018 20:00 15,3 C 89 % 1014,5 hPa 0,0 l/m N 0,00 h 0 W/m 0,0 km/h (0 Bft)
11.10.2018 21:00 14,8 C 90 % 1014,8 hPa 0,0 l/m N 0,00 h 0 W/m 0,0 km/h (0 Bft)
11.10.2018 22:00 13,4 C 89 % 1015,5 hPa 0,0 l/m N 0,00 h 0 W/m 0,0 km/h (0 Bft)
11.10.2018 23:00 12,1 C 90 % 1016,1 hPa 0,0 l/m N 0,00 h 0 W/m 0,0 km/h (0 Bft)
12.10.2018 00:00 11,2 C 91 % 1016,7 hPa 0,0 l/m N 0,00 h 0 W/m 0,0 km/h (0 Bft)
12.10.2018 01:00 10,5 C 92 % 1017,4 hPa 0,0 l/m N 0,00 h 0 W/m 0,0 km/h (0 Bft)
12.10.2018 02:00 9,8 C 93 % 1018,0 hPa 0,0 l/m N 0,00 h 0 W/m 0,0 km/h (0 Bft)
12.10.2018 03:00 9,2 C 93 % 1018,6 hPa 0,0 l/m N 0,00 h 0 W/m 0,0 km/h (0 Bft)
12.10.2018 04:00 8,8 C 94 % 1019,0 hPa 0,0 l/m N 0,00 h 0 W/m 0,0 km/h (0 Bft)
12.10.2018 05:00 8,8 C 95 % 1019,7 hPa 0,0 l/m N 0,00 h 0 W/m 0,0 km/h (0 Bft)
12.10.2018 06:00 8,7 C 95 % 1020,2 hPa 0,0 l/m N 0,00 h 0 W/m 0,0 km/h (0 Bft)
12.10.2018 07:00 8,3 C 96 % 1020,6 hPa 0,0 l/m N 0,17 h 16 W/m 0,0 km/h (0 Bft)
12.10.2018 08:00 8,2 C 96 % 1021,6 hPa 0,0 l/m N 0,33 h 64 W/m 0,0 km/h (0 Bft)
12.10.2018 09:00 10,8 C 98 % 1022,3 hPa 0,0 l/m N 0,92 h 227 W/m 0,0 km/h (0 Bft)
12.10.2018 10:00 14,3 C 93 % 1022,5 hPa 0,0 l/m NO 1,00 h 388 W/m 3,9 km/h (1 Bft)
12.10.2018 11:00 17,9 C 77 % 1022,4 hPa 0,0 l/m S-SO 0,92 h 466 W/m 9,4 km/h (2 Bft)
12.10.2018 12:00 21,2 C 63 % 1022,0 hPa 0,0 l/m S-SO 1,00 h 563 W/m 8,3 km/h (2 Bft)
12.10.2018 13:00 23,4 C 51 % 1021,5 hPa 0,0 l/m O-SO 1,00 h 572 W/m 11,7 km/h (2 Bft)
12.10.2018 14:00 24,2 C 49 % 1020,9 hPa 0,0 l/m O 1,00 h 528 W/m 12,2 km/h (2 Bft)
12.10.2018 15:00 24,4 C 47 % 1020,7 hPa 0,0 l/m O 1,00 h 437 W/m 12,0 km/h (2 Bft)
12.10.2018 16:00 23,9 C 48 % 1020,7 hPa 0,0 l/m O 1,00 h 299 W/m 13,2 km/h (3 Bft)
12.10.2018 17:00 22,7 C 53 % 1020,7 hPa 0,0 l/m O 0,67 h 116 W/m 9,0 km/h (2 Bft)
12.10.2018 18:00 19,3 C 67 % 1021,0 hPa 0,0 l/m N 0,00 h 13 W/m 0,4 km/h (0 Bft)
12.10.2018 19:00 16,7 C 76 % 1021,4 hPa 0,0 l/m N 0,00 h 0 W/m 0,3 km/h (0 Bft)
12.10.2018 20:00 15,8 C 79 % 1021,9 hPa 0,0 l/m N 0,00 h 0 W/m 0,0 km/h (0 Bft)
12.10.2018 21:00 15,4 C 80 % 1022,3 hPa 0,0 l/m N 0,00 h 0 W/m 0,0 km/h (0 Bft)
12.10.2018 22:00 14,8 C 81 % 1022,4 hPa 0,0 l/m N 0,00 h 0 W/m 0,1 km/h (0 Bft)
12.10.2018 23:00 14,8 C 82 % 1022,3 hPa 0,0 l/m N 0,00 h 0 W/m 0,4 km/h (0 Bft)
13.10.2018 00:00 13,8 C 83 % 1022,0 hPa 0,0 l/m N 0,00 h 0 W/m 0,1 km/h (0 Bft)
13.10.2018 01:00 12,4 C 86 % 1021,9 hPa 0,0 l/m O 0,00 h 0 W/m 2,0 km/h (1 Bft)
13.10.2018 02:00 11,4 C 88 % 1021,7 hPa 0,0 l/m N 0,00 h 0 W/m 0,0 km/h (0 Bft)
13.10.2018 03:00 10,2 C 89 % 1021,3 hPa 0,0 l/m N 0,00 h 0 W/m 0,0 km/h (0 Bft)
13.10.2018 04:00 9,4 C 90 % 1021,4 hPa 0,0 l/m N 0,00 h 0 W/m 0,0 km/h (0 Bft)
13.10.2018 05:00 9,0 C 92 % 1021,4 hPa 0,0 l/m N 0,00 h 0 W/m 0,4 km/h (0 Bft)
13.10.2018 06:00 8,8 C 92 % 1021,4 hPa 0,0 l/m N 0,00 h 0 W/m 0,0 km/h (0 Bft)
13.10.2018 07:00 8,1 C 92 % 1021,1 hPa 0,0 l/m N 0,08 h 9 W/m 0,0 km/h (0 Bft)
13.10.2018 08:00 7,9 C 94 % 1021,2 hPa 0,0 l/m N 0,58 h 79 W/m 0,0 km/h (0 Bft)
13.10.2018 09:00 10,9 C 96 % 1021,1 hPa 0,0 l/m O 1,00 h 246 W/m 1,1 km/h (0 Bft)
13.10.2018 10:00 13,4 C 90 % 1020,6 hPa 0,0 l/m N 1,00 h 393 W/m 0,9 km/h (0 Bft)
13.10.2018 11:00 16,6 C 79 % 1020,0 hPa 0,0 l/m O 0,92 h 471 W/m 3,9 km/h (1 Bft)
13.10.2018 12:00 19,2 C 66 % 1019,2 hPa 0,0 l/m O 1,00 h 568 W/m 4,0 km/h (1 Bft)
13.10.2018 13:00 21,0 C 62 % 1018,3 hPa 0,0 l/m O-NO 1,00 h 571 W/m 9,4 km/h (2 Bft)
13.10.2018 14:00 22,0 C 59 % 1017,4 hPa 0,0 l/m O 1,00 h 525 W/m 10,5 km/h (2 Bft)
13.10.2018 15:00 22,3 C 61 % 1016,8 hPa 0,0 l/m NO 1,00 h 429 W/m 9,4 km/h (2 Bft)
13.10.2018 16:00 22,3 C 58 % 1016,3 hPa 0,0 l/m O 1,00 h 294 W/m 12,6 km/h (3 Bft)
13.10.2018 17:00 21,4 C 61 % 1016,1 hPa 0,0 l/m O 0,75 h 114 W/m 9,1 km/h (2 Bft)
13.10.2018 18:00 18,5 C 73 % 1015,9 hPa 0,0 l/m N 0,08 h 14 W/m 0,0 km/h (0 Bft)
13.10.2018 19:00 16,0 C 80 % 1016,0 hPa 0,0 l/m N 0,00 h 0 W/m 0,0 km/h (0 Bft)
13.10.2018 20:00 14,7 C 83 % 1015,8 hPa 0,0 l/m N 0,00 h 0 W/m 0,3 km/h (0 Bft)
13.10.2018 21:00 13,6 C 86 % 1015,6 hPa 0,0 l/m N 0,00 h 0 W/m 0,0 km/h (0 Bft)
13.10.2018 22:00 12,8 C 87 % 1015,4 hPa 0,0 l/m N 0,00 h 0 W/m 0,0 km/h (0 Bft)
13.10.2018 23:00 11,9 C 87 % 1015,1 hPa 0,0 l/m N 0,00 h 0 W/m 0,0 km/h (0 Bft)
14.10.2018 00:00 11,0 C 89 % 1014,8 hPa 0,0 l/m N 0,00 h 0 W/m 0,0 km/h (0 Bft)
14.10.2018 01:00 10,2 C 90 % 1014,7 hPa 0,0 l/m N 0,00 h 0 W/m 0,0 km/h (0 Bft)
14.10.2018 02:00 9,5 C 91 % 1014,6 hPa 0,0 l/m N 0,00 h 0 W/m 0,0 km/h (0 Bft)
14.10.2018 03:00 8,7 C 92 % 1014,5 hPa 0,0 l/m N 0,00 h 0 W/m 0,0 km/h (0 Bft)
14.10.2018 04:00 8,3 C 93 % 1014,3 hPa 0,0 l/m N 0,00 h 0 W/m 0,0 km/h (0 Bft)
14.10.2018 05:00 8,0 C 93 % 1013,9 hPa 0,0 l/m N 0,00 h 0 W/m 0,0 km/h (0 Bft)
14.10.2018 06:00 7,5 C 94 % 1013,5 hPa 0,0 l/m N 0,00 h 0 W/m 0,0 km/h (0 Bft)
14.10.2018 07:00 7,1 C 94 % 1013,2 hPa 0,0 l/m N 0,08 h 9 W/m 0,1 km/h (0 Bft)
14.10.2018 08:00 7,0 C 95 % 1013,1 hPa 0,0 l/m N 0,50 h 71 W/m 0,9 km/h (0 Bft)
14.10.2018 09:00 9,6 C 97 % 1013,0 hPa 0,0 l/m N 0,92 h 228 W/m 1,7 km/h (1 Bft)
14.10.2018 10:00 12,6 C 89 % 1012,7 hPa 0,0 l/m N 1,00 h 396 W/m 0,1 km/h (0 Bft)
14.10.2018 11:00 17,6 C 66 % 1012,0 hPa 0,0 l/m O 0,92 h 474 W/m 3,5 km/h (1 Bft)
14.10.2018 12:00 21,1 C 46 % 1011,5 hPa 0,0 l/m O 1,00 h 571 W/m 6,7 km/h (2 Bft)
14.10.2018 13:00 23,2 C 36 % 1010,7 hPa 0,0 l/m SO 1,00 h 579 W/m 9,0 km/h (2 Bft)
14.10.2018 14:00 24,6 C 30 % 1010,1 hPa 0,0 l/m S-SO 1,00 h 531 W/m 13,6 km/h (3 Bft)
14.10.2018 15:00 24,4 C 29 % 1009,9 hPa 0,0 l/m SW 1,00 h 435 W/m 15,2 km/h (3 Bft)
14.10.2018 16:00 23,7 C 32 % 1009,8 hPa 0,0 l/m SW 1,00 h 296 W/m 5,5 km/h (1 Bft)
14.10.2018 17:00 20,9 C 46 % 1009,6 hPa 0,0 l/m N 0,83 h 113 W/m 0,3 km/h (0 Bft)
14.10.2018 18:00 16,6 C 59 % 1009,8 hPa 0,0 l/m N 0,00 h 13 W/m 0,0 km/h (0 Bft)
14.10.2018 19:00 14,8 C 62 % 1010,1 hPa 0,0 l/m N 0,00 h 0 W/m 0,0 km/h (0 Bft)
14.10.2018 20:00 13,1 C 68 % 1010,5 hPa 0,0 l/m N 0,00 h 0 W/m 0,0 km/h (0 Bft)
14.10.2018 21:00 11,4 C 73 % 1010,6 hPa 0,0 l/m N 0,00 h 0 W/m 0,0 km/h (0 Bft)
14.10.2018 22:00 10,6 C 79 % 1010,8 hPa 0,0 l/m N 0,00 h 0 W/m 0,0 km/h (0 Bft)
14.10.2018 23:00 9,6 C 80 % 1011,0 hPa 0,0 l/m N 0,00 h 0 W/m 0,0 km/h (0 Bft)
Min-Datum _ 11.10.18 14.10.18 14.10.18 - - - - 08.10.18
_ Min-Zeit 07:55 14:35 17:20 - - - - 00:15
Minimum _ 6,2 C 28 % 1009,5 hPa - - - - 0,0 km/h (0 Bft)
Max-Datum _ 14.10.18 11.10.18 12.10.18 11.10.18 - 08.10.18 08.10.18 08.10.18
_ Max-Zeit 14:45 05:00 11:05 03:50 - 11:45 12:15 13:30
Maximum _ 24,8 C 100 % 1022,7 hPa 0,2 l/m - 0,08 h 882 W/m 20,9 km/h
NO (4 Bft)
Durchschnitt _ 13,9 C 84 % 1016,7 hPa #0,2 l/m NO #46:50 h 258 W/m 3,9 km/h (1 Bft)